Weather History for Coleman, TX

Change the Weather History Date:

Friday, March 15, 2013

  Actual Average (KABI) Record (KABI)
Temperature  
Mean Temperature 65 °F 56 °F  
Max Temperature 84 °F 68 °F 88 °F (1961)
Min Temperature 47 °F 44 °F 22 °F (1962)
Degree Days  
Heating Degree Days 0 10  
Month to date heating degree days 172  
Since 1 July heating degree days 2305  
Cooling Degree Days 0 1  
Month to date cooling degree days 10  
Year to date cooling degree days 15  
Growing Degree Days 15 (Base 50)    
Moisture  
Dew Point 41 °F    
Average Humidity 44    
Maximum Humidity 79    
Minimum Humidity 19    
Precipitation  
Precipitation 0.00 in 0.06 in 1.32 in (1998)
Month to date precipitation 0.85  
Year to date precipitation 3.23  
Sea Level Pressure  
Sea Level Pressure 30.06 in    
Wind  
Wind Speed 9 mph (SSW)    
Max Wind Speed 21 mph    
Max Gust Speed 29 mph    
Visibility 10 miles    
Events      
T = Trace of Precipitation, MM = Missing Value Source: NWS Daily Summary

Daily Weather History Graph

Daily Weather History Graph

Search for Another Location

Airport:

Trip Planner

Search our weather history database for the weather conditions in past years. The results will help you decide how hot, cold, wet, or windy it might be!

Date:

Astronomy

Mar. 15, 2013 Rise Set
Actual Time 7:47 AM CDT 7:45 PM CDT
Civil Twilight 7:23 AM CDT 8:10 PM CDT
Nautical Twilight 6:54 AM CDT 8:38 PM CDT
Astronomical Twilight 6:26 AM CDT 9:07 PM CDT
Moon 9:54 AM CDT (3/15) 11:44 PM CDT (3/15)
Length of Visible Light 12h 47m
Length of Day
11h 58m
Waxing Crescent, 15% of the Moon is Illuminated
Mar 15
Waxing Crescent
Mar 19
First Quarter
Mar 27
Full
Apr 2
Last Quarter
Apr 10
New

Hourly Weather History & Observations

Time (CDT) Temp. Dew Point Humidity Pressure Visibility Wind Dir Wind Speed Gust Speed Precip Events Conditions
12:15 AM 56.5 °F 37.4 °F 49% 30.19 in 10.0 mi SSW 5.8 mph - N/A   Clear
12:35 AM 55.9 °F 37.4 °F 50% 30.19 in 10.0 mi SSW 5.8 mph - N/A   Clear
12:55 AM 55.2 °F 37.6 °F 52% 30.18 in 10.0 mi SW 6.9 mph - N/A   Clear
1:15 AM 54.9 °F 37.8 °F 53% 30.18 in 10.0 mi SSW 4.6 mph - N/A   Clear
1:35 AM 54.3 °F 37.8 °F 54% 30.18 in 10.0 mi SSW 6.9 mph - N/A   Clear
1:55 AM 54.7 °F 37.8 °F 53% 30.18 in 10.0 mi SSW 4.6 mph - N/A   Clear
2:15 AM 52.0 °F 37.4 °F 58% 30.19 in 10.0 mi SSW 5.8 mph - N/A   Clear
2:35 AM 54.3 °F 37.6 °F 53% 30.18 in 10.0 mi SSW 6.9 mph - N/A   Clear
2:55 AM 53.6 °F 37.4 °F 54% 30.17 in 10.0 mi SW 6.9 mph - N/A   Clear
3:15 AM 52.9 °F 37.4 °F 56% 30.17 in 10.0 mi SSW 6.9 mph - N/A   Clear
3:35 AM 53.1 °F 37.6 °F 56% 30.16 in 10.0 mi SSW 6.9 mph - N/A   Clear
3:55 AM 52.9 °F 37.6 °F 56% 30.15 in 10.0 mi SSW 6.9 mph - N/A   Clear
4:15 AM 52.3 °F 37.6 °F 57% 30.15 in 10.0 mi SSW 8.1 mph - N/A   Clear
4:35 AM 52.2 °F 38.1 °F 59% 30.14 in 10.0 mi SSW 8.1 mph - N/A   Clear
4:55 AM 51.6 °F 38.8 °F 62% 30.13 in 10.0 mi SSW 8.1 mph - N/A   Clear
5:15 AM 50.9 °F 39.9 °F 66% 30.13 in 10.0 mi SSW 8.1 mph - N/A   Clear
5:35 AM 50.2 °F 40.1 °F 68% 30.13 in 10.0 mi SSW 6.9 mph - N/A   Clear
5:55 AM 49.1 °F 40.5 °F 72% 30.14 in 10.0 mi SSW 6.9 mph - N/A   Clear
6:15 AM 48.4 °F 40.3 °F 74% 30.14 in 10.0 mi SSW 5.8 mph - N/A   Clear
6:35 AM 47.7 °F 40.5 °F 76% 30.14 in 10.0 mi SSW 5.8 mph - N/A   Clear
6:55 AM 47.8 °F 41.0 °F 77% 30.14 in 10.0 mi SSW 5.8 mph - N/A   Clear
7:15 AM 48.0 °F 41.2 °F 77% 30.14 in 10.0 mi SSW 4.6 mph - N/A   Clear
7:35 AM 48.6 °F 41.5 °F 77% 30.14 in 10.0 mi SSW 3.5 mph - N/A   Clear
7:55 AM 47.3 °F 41.0 °F 79% 30.14 in 10.0 mi Calm Calm - N/A   Clear
8:15 AM 47.3 °F 41.0 °F 79% 30.14 in 10.0 mi Calm Calm - N/A   Clear
8:35 AM 49.1 °F 43.0 °F 79% 30.15 in 10.0 mi Calm Calm - N/A   Clear
8:55 AM 53.8 °F 45.7 °F 74% 30.15 in 10.0 mi South 4.6 mph - N/A   Clear
9:15 AM 56.1 °F 46.6 °F 70% 30.15 in 10.0 mi SW 4.6 mph - N/A   Clear
9:35 AM 58.8 °F 47.3 °F 66% 30.16 in 10.0 mi SW 10.4 mph - N/A   Clear
10:55 AM 66.7 °F 47.7 °F 50% 30.15 in 10.0 mi SSW 16.1 mph 20.7 mph N/A   Clear
11:15 AM 69.1 °F 47.1 °F 45% 30.14 in 10.0 mi SSW 17.3 mph 24.2 mph N/A   Clear
11:35 AM 70.0 °F 47.1 °F 44% 30.13 in 10.0 mi SSW 20.7 mph 27.6 mph N/A   Clear
11:55 AM 71.6 °F 47.3 °F 42% 30.12 in 10.0 mi South 18.4 mph 23.0 mph N/A   Clear
12:15 PM 73.4 °F 46.6 °F 38% 30.11 in 10.0 mi SSW 17.3 mph 24.2 mph N/A   Clear
12:35 PM 74.7 °F 46.4 °F 37% 30.10 in 10.0 mi SSW 13.8 mph 23.0 mph N/A   Clear
12:55 PM 76.1 °F 45.0 °F 33% 30.09 in 10.0 mi SSW 15.0 mph 23.0 mph N/A   Clear
1:15 PM 77.0 °F 44.2 °F 31% 30.08 in 10.0 mi SSW 18.4 mph 24.2 mph N/A   Clear
1:35 PM 78.4 °F 43.2 °F 28% 30.07 in 10.0 mi SW 15.0 mph 23.0 mph N/A   Clear
1:55 PM 79.7 °F 43.2 °F 27% 30.05 in 10.0 mi SSW 18.4 mph 23.0 mph N/A   Clear
2:15 PM 80.4 °F 42.4 °F 26% 30.04 in 10.0 mi South 15.0 mph 23.0 mph N/A   Clear
2:35 PM 80.8 °F 42.4 °F 26% 30.03 in 10.0 mi SSW 13.8 mph 24.2 mph N/A   Clear
2:55 PM 81.5 °F 41.0 °F 24% 30.01 in 10.0 mi South 20.7 mph 26.5 mph N/A   Clear
3:15 PM 81.5 °F 41.4 °F 24% 30.00 in 10.0 mi SSW 18.4 mph 25.3 mph N/A   Clear
3:35 PM 82.6 °F 41.7 °F 24% 29.99 in 10.0 mi SSW 17.3 mph 27.6 mph N/A   Clear
3:55 PM 82.8 °F 41.5 °F 23% 29.97 in 10.0 mi South 12.7 mph 19.6 mph N/A   Clear
4:15 PM 83.7 °F 40.3 °F 21% 29.96 in 10.0 mi SSW 12.7 mph 24.2 mph N/A   Clear
4:35 PM 83.8 °F 38.5 °F 20% 29.96 in 10.0 mi South 11.5 mph 24.2 mph N/A   Clear
4:55 PM 83.7 °F 37.9 °F 20% 29.95 in 10.0 mi SSW 15.0 mph 21.9 mph N/A   Clear
5:15 PM 83.5 °F 37.6 °F 19% 29.95 in 10.0 mi SSW 17.3 mph 24.2 mph N/A   Clear
5:35 PM 83.5 °F 37.6 °F 19% 29.94 in 10.0 mi SSW 18.4 mph 28.8 mph N/A   Clear
5:55 PM 83.3 °F 37.4 °F 19% 29.94 in 10.0 mi SSW 12.7 mph 23.0 mph N/A   Clear
6:15 PM 82.8 °F 37.0 °F 20% 29.93 in 10.0 mi South 12.7 mph 21.9 mph N/A   Clear
6:35 PM 81.9 °F 37.4 °F 20% 29.93 in 10.0 mi South 17.3 mph - N/A   Clear
6:55 PM 81.0 °F 37.4 °F 21% 29.92 in 10.0 mi South 13.8 mph 19.6 mph N/A   Clear
7:15 PM 79.3 °F 37.9 °F 23% 29.92 in 10.0 mi South 16.1 mph 21.9 mph N/A   Clear
7:35 PM 77.7 °F 37.6 °F 24% 29.92 in 10.0 mi South 17.3 mph 21.9 mph N/A   Clear
7:55 PM 75.9 °F 37.4 °F 25% 29.92 in 10.0 mi South 13.8 mph 18.4 mph N/A   Clear
8:15 PM 74.3 °F 37.2 °F 26% 29.93 in 10.0 mi South 12.7 mph - N/A   Clear
8:35 PM 72.7 °F 37.0 °F 27% 29.93 in 10.0 mi South 10.4 mph - N/A   Clear
8:55 PM 72.0 °F 39.4 °F 31% 29.93 in 10.0 mi South 12.7 mph - N/A   Clear
9:15 PM 71.6 °F 41.0 °F 33% 29.93 in 10.0 mi South 12.7 mph - N/A   Clear
9:35 PM 71.2 °F 41.4 °F 34% 29.93 in 10.0 mi South 15.0 mph - N/A   Clear
9:55 PM 70.7 °F 41.9 °F 35% 29.93 in 10.0 mi South 17.3 mph - N/A   Clear
10:15 PM 69.6 °F 41.9 °F 37% 29.93 in 10.0 mi South 16.1 mph 19.6 mph N/A   Clear
10:35 PM 68.7 °F 41.9 °F 38% 29.93 in 10.0 mi South 13.8 mph 20.7 mph N/A   Clear
10:55 PM 68.2 °F 41.9 °F 38% 29.93 in 10.0 mi SSW 16.1 mph 23.0 mph N/A   Clear
11:15 PM 67.3 °F 42.3 °F 40% 29.93 in 10.0 mi SSW 16.1 mph 20.7 mph N/A   Clear
11:35 PM 66.6 °F 42.8 °F 42% 29.93 in 10.0 mi SSW 12.7 mph 19.6 mph N/A   Clear
11:55 PM 65.8 °F 42.8 °F 43% 29.92 in 10.0 mi SSW 12.7 mph - N/A   Clear